sensor_id;sensor_type;location;lat;lon;timestamp;P1;durP1;ratioP1;P2;durP2;ratioP2
35434;SDS011;21556;55.782;37.528;2024-01-25T00:02:15;19.97;;;10.47;;
35434;SDS011;21556;55.782;37.528;2024-01-25T00:04:44;16.13;;;10.53;;
35434;SDS011;21556;55.782;37.528;2024-01-25T00:07:11;19.10;;;10.50;;
35434;SDS011;21556;55.782;37.528;2024-01-25T00:09:37;18.93;;;11.23;;
35434;SDS011;21556;55.782;37.528;2024-01-25T00:12:04;22.90;;;11.77;;
35434;SDS011;21556;55.782;37.528;2024-01-25T00:14:30;21.17;;;11.83;;
35434;SDS011;21556;55.782;37.528;2024-01-25T00:16:56;20.47;;;11.80;;
35434;SDS011;21556;55.782;37.528;2024-01-25T00:19:22;19.43;;;11.10;;
35434;SDS011;21556;55.782;37.528;2024-01-25T00:21:49;20.13;;;10.90;;
35434;SDS011;21556;55.782;37.528;2024-01-25T00:24:15;20.90;;;11.50;;
35434;SDS011;21556;55.782;37.528;2024-01-25T00:26:43;21.67;;;12.10;;
35434;SDS011;21556;55.782;37.528;2024-01-25T00:29:09;21.23;;;11.97;;
35434;SDS011;21556;55.782;37.528;2024-01-25T00:31:40;18.83;;;10.60;;
35434;SDS011;21556;55.782;37.528;2024-01-25T00:34:09;19.63;;;12.23;;
35434;SDS011;21556;55.782;37.528;2024-01-25T00:36:35;19.97;;;12.33;;
35434;SDS011;21556;55.782;37.528;2024-01-25T00:39:03;21.13;;;13.00;;
35434;SDS011;21556;55.782;37.528;2024-01-25T00:41:34;19.10;;;11.13;;
35434;SDS011;21556;55.782;37.528;2024-01-25T00:44:01;21.33;;;10.45;;
35434;SDS011;21556;55.782;37.528;2024-01-25T00:46:32;21.87;;;12.07;;
35434;SDS011;21556;55.782;37.528;2024-01-25T00:48:58;19.87;;;11.90;;
35434;SDS011;21556;55.782;37.528;2024-01-25T00:51:25;23.03;;;12.07;;
35434;SDS011;21556;55.782;37.528;2024-01-25T00:53:51;19.83;;;11.57;;
35434;SDS011;21556;55.782;37.528;2024-01-25T00:56:18;21.83;;;12.10;;
35434;SDS011;21556;55.782;37.528;2024-01-25T00:58:47;22.17;;;13.13;;
35434;SDS011;21556;55.782;37.528;2024-01-25T01:01:16;25.27;;;13.73;;
35434;SDS011;21556;55.782;37.528;2024-01-25T01:03:47;23.53;;;13.30;;
35434;SDS011;21556;55.782;37.528;2024-01-25T01:06:19;21.87;;;12.30;;
35434;SDS011;21556;55.782;37.528;2024-01-25T01:08:46;23.15;;;11.82;;
35434;SDS011;21556;55.782;37.528;2024-01-25T01:11:13;21.17;;;11.17;;
35434;SDS011;21556;55.782;37.528;2024-01-25T01:13:39;21.83;;;11.70;;
35434;SDS011;21556;55.782;37.528;2024-01-25T01:16:05;22.47;;;11.93;;
35434;SDS011;21556;55.782;37.528;2024-01-25T01:18:32;21.20;;;12.60;;
35434;SDS011;21556;55.782;37.528;2024-01-25T01:20:58;21.20;;;12.10;;
35434;SDS011;21556;55.782;37.528;2024-01-25T01:23:24;20.37;;;11.67;;
35434;SDS011;21556;55.782;37.528;2024-01-25T01:25:50;19.60;;;12.03;;
35434;SDS011;21556;55.782;37.528;2024-01-25T01:28:16;19.67;;;12.17;;
35434;SDS011;21556;55.782;37.528;2024-01-25T01:30:43;22.57;;;12.10;;
35434;SDS011;21556;55.782;37.528;2024-01-25T01:35:37;17.57;;;11.07;;
35434;SDS011;21556;55.782;37.528;2024-01-25T01:38:07;16.50;;;10.23;;
35434;SDS011;21556;55.782;37.528;2024-01-25T01:40:33;18.80;;;10.83;;
35434;SDS011;21556;55.782;37.528;2024-01-25T01:43:00;19.27;;;10.67;;
35434;SDS011;21556;55.782;37.528;2024-01-25T01:45:27;18.17;;;11.47;;
35434;SDS011;21556;55.782;37.528;2024-01-25T01:47:56;20.50;;;11.10;;
35434;SDS011;21556;55.782;37.528;2024-01-25T01:50:28;16.70;;;10.40;;
35434;SDS011;21556;55.782;37.528;2024-01-25T01:52:55;16.77;;;9.83;;
35434;SDS011;21556;55.782;37.528;2024-01-25T01:55:23;17.55;;;11.00;;
35434;SDS011;21556;55.782;37.528;2024-01-25T01:57:49;17.20;;;10.67;;
35434;SDS011;21556;55.782;37.528;2024-01-25T02:00:17;13.90;;;7.60;;
35434;SDS011;21556;55.782;37.528;2024-01-25T02:02:43;14.27;;;9.13;;
35434;SDS011;21556;55.782;37.528;2024-01-25T02:05:10;14.97;;;9.67;;
35434;SDS011;21556;55.782;37.528;2024-01-25T02:07:37;18.53;;;9.70;;
35434;SDS011;21556;55.782;37.528;2024-01-25T02:10:04;22.10;;;10.70;;
35434;SDS011;21556;55.782;37.528;2024-01-25T02:12:30;18.00;;;10.43;;
35434;SDS011;21556;55.782;37.528;2024-01-25T02:14:57;19.60;;;10.90;;
35434;SDS011;21556;55.782;37.528;2024-01-25T02:17:23;18.20;;;9.20;;
35434;SDS011;21556;55.782;37.528;2024-01-25T02:19:50;18.07;;;10.83;;
35434;SDS011;21556;55.782;37.528;2024-01-25T02:22:19;14.80;;;8.97;;
35434;SDS011;21556;55.782;37.528;2024-01-25T02:24:45;16.10;;;8.53;;
35434;SDS011;21556;55.782;37.528;2024-01-25T02:27:11;14.10;;;9.13;;
35434;SDS011;21556;55.782;37.528;2024-01-25T02:29:38;15.53;;;9.70;;
35434;SDS011;21556;55.782;37.528;2024-01-25T02:32:04;15.33;;;8.90;;
35434;SDS011;21556;55.782;37.528;2024-01-25T02:34:30;13.70;;;8.57;;
35434;SDS011;21556;55.782;37.528;2024-01-25T02:36:57;16.63;;;9.13;;
35434;SDS011;21556;55.782;37.528;2024-01-25T02:39:23;15.80;;;8.50;;
35434;SDS011;21556;55.782;37.528;2024-01-25T02:41:49;14.97;;;8.57;;
35434;SDS011;21556;55.782;37.528;2024-01-25T02:44:23;15.07;;;9.83;;
35434;SDS011;21556;55.782;37.528;2024-01-25T02:46:49;13.97;;;9.03;;
35434;SDS011;21556;55.782;37.528;2024-01-25T02:49:15;15.50;;;9.13;;
35434;SDS011;21556;55.782;37.528;2024-01-25T02:51:41;13.57;;;9.00;;
35434;SDS011;21556;55.782;37.528;2024-01-25T02:54:07;13.57;;;9.47;;
35434;SDS011;21556;55.782;37.528;2024-01-25T02:56:34;12.50;;;8.57;;
35434;SDS011;21556;55.782;37.528;2024-01-25T02:59:01;16.10;;;10.13;;
35434;SDS011;21556;55.782;37.528;2024-01-25T03:01:27;14.83;;;8.80;;
35434;SDS011;21556;55.782;37.528;2024-01-25T03:03:53;16.13;;;9.80;;
35434;SDS011;21556;55.782;37.528;2024-01-25T03:06:19;14.43;;;9.23;;
35434;SDS011;21556;55.782;37.528;2024-01-25T03:11:16;16.90;;;9.17;;
35434;SDS011;21556;55.782;37.528;2024-01-25T03:13:42;15.47;;;9.37;;
35434;SDS011;21556;55.782;37.528;2024-01-25T03:16:08;18.63;;;10.13;;
35434;SDS011;21556;55.782;37.528;2024-01-25T03:18:35;14.70;;;8.97;;
35434;SDS011;21556;55.782;37.528;2024-01-25T03:21:02;18.27;;;9.52;;
35434;SDS011;21556;55.782;37.528;2024-01-25T03:23:31;15.70;;;8.93;;
35434;SDS011;21556;55.782;37.528;2024-01-25T03:26:01;13.77;;;9.32;;
35434;SDS011;21556;55.782;37.528;2024-01-25T03:28:28;15.90;;;8.40;;
35434;SDS011;21556;55.782;37.528;2024-01-25T03:30:59;12.87;;;8.23;;
35434;SDS011;21556;55.782;37.528;2024-01-25T03:33:26;18.50;;;9.57;;
35434;SDS011;21556;55.782;37.528;2024-01-25T03:35:53;21.05;;;9.43;;
35434;SDS011;21556;55.782;37.528;2024-01-25T03:38:21;15.53;;;9.07;;
35434;SDS011;21556;55.782;37.528;2024-01-25T03:40:47;13.80;;;8.53;;
35434;SDS011;21556;55.782;37.528;2024-01-25T03:43:16;15.23;;;8.77;;
35434;SDS011;21556;55.782;37.528;2024-01-25T03:48:10;19.27;;;10.10;;
35434;SDS011;21556;55.782;37.528;2024-01-25T03:50:39;15.43;;;9.20;;
35434;SDS011;21556;55.782;37.528;2024-01-25T03:53:06;16.90;;;9.37;;
35434;SDS011;21556;55.782;37.528;2024-01-25T03:55:32;14.53;;;8.47;;
35434;SDS011;21556;55.782;37.528;2024-01-25T04:00:29;14.30;;;8.30;;
35434;SDS011;21556;55.782;37.528;2024-01-25T04:02:58;12.87;;;8.23;;
35434;SDS011;21556;55.782;37.528;2024-01-25T04:05:25;10.57;;;5.83;;
35434;SDS011;21556;55.782;37.528;2024-01-25T04:07:52;14.73;;;8.27;;
35434;SDS011;21556;55.782;37.528;2024-01-25T04:10:18;13.37;;;6.83;;
35434;SDS011;21556;55.782;37.528;2024-01-25T04:12:49;15.73;;;9.10;;
35434;SDS011;21556;55.782;37.528;2024-01-25T04:15:18;14.20;;;8.53;;
35434;SDS011;21556;55.782;37.528;2024-01-25T04:17:45;7.97;;;5.35;;
35434;SDS011;21556;55.782;37.528;2024-01-25T04:20:11;12.97;;;7.30;;
35434;SDS011;21556;55.782;37.528;2024-01-25T04:22:42;10.90;;;6.90;;
35434;SDS011;21556;55.782;37.528;2024-01-25T04:25:15;12.50;;;6.97;;
35434;SDS011;21556;55.782;37.528;2024-01-25T04:27:41;11.98;;;7.18;;
35434;SDS011;21556;55.782;37.528;2024-01-25T04:30:12;10.97;;;6.80;;
35434;SDS011;21556;55.782;37.528;2024-01-25T04:32:40;10.90;;;7.80;;
35434;SDS011;21556;55.782;37.528;2024-01-25T04:35:07;11.87;;;7.03;;
35434;SDS011;21556;55.782;37.528;2024-01-25T04:37:37;12.83;;;7.50;;
35434;SDS011;21556;55.782;37.528;2024-01-25T04:40:03;10.10;;;7.10;;
35434;SDS011;21556;55.782;37.528;2024-01-25T04:42:32;13.32;;;7.35;;
35434;SDS011;21556;55.782;37.528;2024-01-25T04:45:01;11.57;;;7.37;;
35434;SDS011;21556;55.782;37.528;2024-01-25T04:52:50;11.23;;;7.17;;
35434;SDS011;21556;55.782;37.528;2024-01-25T04:55:17;12.27;;;7.30;;
35434;SDS011;21556;55.782;37.528;2024-01-25T04:57:47;12.93;;;8.00;;
35434;SDS011;21556;55.782;37.528;2024-01-25T05:00:24;7.60;;;5.57;;
35434;SDS011;21556;55.782;37.528;2024-01-25T05:02:56;11.67;;;8.17;;
35434;SDS011;21556;55.782;37.528;2024-01-25T05:05:23;11.60;;;7.37;;
35434;SDS011;21556;55.782;37.528;2024-01-25T05:07:50;12.35;;;6.72;;
35434;SDS011;21556;55.782;37.528;2024-01-25T05:10:17;12.53;;;6.87;;
35434;SDS011;21556;55.782;37.528;2024-01-25T05:12:44;13.20;;;7.10;;
35434;SDS011;21556;55.782;37.528;2024-01-25T05:15:10;12.27;;;6.73;;
35434;SDS011;21556;55.782;37.528;2024-01-25T05:17:36;12.43;;;7.43;;
35434;SDS011;21556;55.782;37.528;2024-01-25T05:20:02;13.33;;;7.20;;
35434;SDS011;21556;55.782;37.528;2024-01-25T05:22:29;12.00;;;7.27;;
35434;SDS011;21556;55.782;37.528;2024-01-25T05:24:55;12.60;;;8.00;;
35434;SDS011;21556;55.782;37.528;2024-01-25T05:27:21;13.07;;;8.13;;
35434;SDS011;21556;55.782;37.528;2024-01-25T05:29:52;11.23;;;7.23;;
35434;SDS011;21556;55.782;37.528;2024-01-25T05:32:18;11.10;;;7.37;;
35434;SDS011;21556;55.782;37.528;2024-01-25T05:34:44;12.40;;;7.83;;
35434;SDS011;21556;55.782;37.528;2024-01-25T05:37:10;12.37;;;7.87;;
35434;SDS011;21556;55.782;37.528;2024-01-25T05:39:36;10.30;;;7.07;;
35434;SDS011;21556;55.782;37.528;2024-01-25T05:42:02;13.53;;;7.43;;
35434;SDS011;21556;55.782;37.528;2024-01-25T05:44:28;12.07;;;6.93;;
35434;SDS011;21556;55.782;37.528;2024-01-25T05:46:54;9.57;;;6.47;;
35434;SDS011;21556;55.782;37.528;2024-01-25T05:49:24;12.07;;;7.67;;
35434;SDS011;21556;55.782;37.528;2024-01-25T05:51:51;12.00;;;7.87;;
35434;SDS011;21556;55.782;37.528;2024-01-25T05:54:17;14.33;;;7.97;;
35434;SDS011;21556;55.782;37.528;2024-01-25T05:56:45;11.82;;;7.75;;
35434;SDS011;21556;55.782;37.528;2024-01-25T05:59:12;12.20;;;7.27;;
35434;SDS011;21556;55.782;37.528;2024-01-25T06:01:39;11.27;;;7.03;;
35434;SDS011;21556;55.782;37.528;2024-01-25T06:04:08;12.33;;;8.50;;
35434;SDS011;21556;55.782;37.528;2024-01-25T06:06:37;10.63;;;6.90;;
35434;SDS011;21556;55.782;37.528;2024-01-25T06:09:08;12.20;;;7.20;;
35434;SDS011;21556;55.782;37.528;2024-01-25T06:11:35;11.93;;;7.33;;
35434;SDS011;21556;55.782;37.528;2024-01-25T06:14:29;11.13;;;6.97;;
35434;SDS011;21556;55.782;37.528;2024-01-25T06:16:55;12.33;;;7.33;;
35434;SDS011;21556;55.782;37.528;2024-01-25T06:19:22;11.80;;;7.93;;
35434;SDS011;21556;55.782;37.528;2024-01-25T06:21:55;14.23;;;8.57;;
35434;SDS011;21556;55.782;37.528;2024-01-25T06:24:25;11.07;;;7.17;;
35434;SDS011;21556;55.782;37.528;2024-01-25T06:27:09;12.03;;;8.20;;
35434;SDS011;21556;55.782;37.528;2024-01-25T06:29:39;13.93;;;8.13;;
35434;SDS011;21556;55.782;37.528;2024-01-25T06:32:08;14.83;;;7.47;;
35434;SDS011;21556;55.782;37.528;2024-01-25T06:34:35;8.75;;;5.72;;
35434;SDS011;21556;55.782;37.528;2024-01-25T06:37:05;13.80;;;8.87;;
35434;SDS011;21556;55.782;37.528;2024-01-25T06:39:34;12.67;;;8.67;;
35434;SDS011;21556;55.782;37.528;2024-01-25T06:42:03;13.40;;;7.80;;
35434;SDS011;21556;55.782;37.528;2024-01-25T06:44:30;13.30;;;8.87;;
35434;SDS011;21556;55.782;37.528;2024-01-25T06:46:56;11.37;;;7.37;;
35434;SDS011;21556;55.782;37.528;2024-01-25T06:49:22;13.60;;;8.77;;
35434;SDS011;21556;55.782;37.528;2024-01-25T06:51:48;15.77;;;8.73;;
35434;SDS011;21556;55.782;37.528;2024-01-25T06:54:15;12.10;;;8.47;;
35434;SDS011;21556;55.782;37.528;2024-01-25T06:56:41;14.60;;;7.83;;
35434;SDS011;21556;55.782;37.528;2024-01-25T06:59:07;12.90;;;8.60;;
35434;SDS011;21556;55.782;37.528;2024-01-25T07:01:33;13.10;;;8.77;;
35434;SDS011;21556;55.782;37.528;2024-01-25T07:04:00;14.90;;;9.47;;
35434;SDS011;21556;55.782;37.528;2024-01-25T07:06:26;13.27;;;8.90;;
35434;SDS011;21556;55.782;37.528;2024-01-25T07:08:52;16.10;;;9.63;;
35434;SDS011;21556;55.782;37.528;2024-01-25T07:11:19;16.37;;;9.53;;
35434;SDS011;21556;55.782;37.528;2024-01-25T07:13:45;14.87;;;10.50;;
35434;SDS011;21556;55.782;37.528;2024-01-25T07:16:11;14.37;;;9.53;;
35434;SDS011;21556;55.782;37.528;2024-01-25T07:18:37;14.77;;;9.40;;
35434;SDS011;21556;55.782;37.528;2024-01-25T07:21:07;15.13;;;9.03;;
35434;SDS011;21556;55.782;37.528;2024-01-25T07:23:36;16.67;;;10.37;;
35434;SDS011;21556;55.782;37.528;2024-01-25T07:26:02;16.73;;;10.20;;
35434;SDS011;21556;55.782;37.528;2024-01-25T07:28:28;14.33;;;9.60;;
35434;SDS011;21556;55.782;37.528;2024-01-25T07:30:54;14.23;;;8.47;;
35434;SDS011;21556;55.782;37.528;2024-01-25T07:33:20;16.37;;;10.20;;
35434;SDS011;21556;55.782;37.528;2024-01-25T07:35:50;14.30;;;9.20;;
35434;SDS011;21556;55.782;37.528;2024-01-25T07:38:16;13.53;;;9.30;;
35434;SDS011;21556;55.782;37.528;2024-01-25T07:40:43;14.67;;;9.90;;
35434;SDS011;21556;55.782;37.528;2024-01-25T07:43:09;17.00;;;9.13;;
35434;SDS011;21556;55.782;37.528;2024-01-25T07:45:35;15.90;;;9.63;;
35434;SDS011;21556;55.782;37.528;2024-01-25T07:48:02;14.87;;;8.80;;
35434;SDS011;21556;55.782;37.528;2024-01-25T07:50:30;14.87;;;8.60;;
35434;SDS011;21556;55.782;37.528;2024-01-25T07:52:58;10.97;;;6.97;;
35434;SDS011;21556;55.782;37.528;2024-01-25T07:55:26;14.93;;;9.77;;
35434;SDS011;21556;55.782;37.528;2024-01-25T07:57:55;16.00;;;9.23;;
35434;SDS011;21556;55.782;37.528;2024-01-25T08:00:21;14.10;;;8.70;;
35434;SDS011;21556;55.782;37.528;2024-01-25T08:02:48;13.73;;;7.80;;
35434;SDS011;21556;55.782;37.528;2024-01-25T08:05:16;14.00;;;9.27;;
35434;SDS011;21556;55.782;37.528;2024-01-25T08:07:45;13.77;;;8.38;;
35434;SDS011;21556;55.782;37.528;2024-01-25T08:10:12;10.25;;;6.55;;
35434;SDS011;21556;55.782;37.528;2024-01-25T08:12:41;13.50;;;8.90;;
35434;SDS011;21556;55.782;37.528;2024-01-25T08:17:36;15.17;;;8.83;;
35434;SDS011;21556;55.782;37.528;2024-01-25T08:20:03;11.73;;;6.80;;
35434;SDS011;21556;55.782;37.528;2024-01-25T08:22:31;13.85;;;8.82;;
35434;SDS011;21556;55.782;37.528;2024-01-25T08:24:58;13.00;;;8.47;;
35434;SDS011;21556;55.782;37.528;2024-01-25T08:27:24;13.53;;;7.50;;
35434;SDS011;21556;55.782;37.528;2024-01-25T08:29:50;13.97;;;8.90;;
35434;SDS011;21556;55.782;37.528;2024-01-25T08:32:19;13.57;;;8.63;;
35434;SDS011;21556;55.782;37.528;2024-01-25T08:34:45;14.63;;;9.10;;
35434;SDS011;21556;55.782;37.528;2024-01-25T08:37:11;12.37;;;7.80;;
35434;SDS011;21556;55.782;37.528;2024-01-25T08:39:38;11.27;;;8.17;;
35434;SDS011;21556;55.782;37.528;2024-01-25T08:42:04;11.93;;;7.23;;
35434;SDS011;21556;55.782;37.528;2024-01-25T08:44:32;16.35;;;8.73;;
35434;SDS011;21556;55.782;37.528;2024-01-25T08:46:58;13.60;;;7.57;;
35434;SDS011;21556;55.782;37.528;2024-01-25T08:49:26;14.48;;;7.90;;
35434;SDS011;21556;55.782;37.528;2024-01-25T08:51:52;12.40;;;8.10;;
35434;SDS011;21556;55.782;37.528;2024-01-25T08:54:19;12.50;;;7.57;;
35434;SDS011;21556;55.782;37.528;2024-01-25T08:56:45;13.23;;;8.23;;
35434;SDS011;21556;55.782;37.528;2024-01-25T08:59:11;12.73;;;8.17;;
35434;SDS011;21556;55.782;37.528;2024-01-25T09:01:40;15.60;;;8.03;;
35434;SDS011;21556;55.782;37.528;2024-01-25T09:04:08;11.30;;;7.40;;
35434;SDS011;21556;55.782;37.528;2024-01-25T09:06:36;14.93;;;8.50;;
35434;SDS011;21556;55.782;37.528;2024-01-25T09:09:05;12.50;;;8.50;;
35434;SDS011;21556;55.782;37.528;2024-01-25T09:11:31;11.60;;;7.73;;
35434;SDS011;21556;55.782;37.528;2024-01-25T09:14:01;12.67;;;7.77;;
35434;SDS011;21556;55.782;37.528;2024-01-25T09:16:27;11.10;;;7.03;;
35434;SDS011;21556;55.782;37.528;2024-01-25T09:18:53;11.67;;;7.10;;
35434;SDS011;21556;55.782;37.528;2024-01-25T09:21:19;11.23;;;7.90;;
35434;SDS011;21556;55.782;37.528;2024-01-25T09:23:45;11.30;;;8.07;;
35434;SDS011;21556;55.782;37.528;2024-01-25T09:26:11;14.30;;;7.77;;
35434;SDS011;21556;55.782;37.528;2024-01-25T09:28:37;13.67;;;7.77;;
35434;SDS011;21556;55.782;37.528;2024-01-25T09:31:04;11.97;;;8.07;;
35434;SDS011;21556;55.782;37.528;2024-01-25T09:33:30;10.87;;;7.20;;
35434;SDS011;21556;55.782;37.528;2024-01-25T09:38:28;11.53;;;7.77;;
35434;SDS011;21556;55.782;37.528;2024-01-25T09:40:54;12.67;;;8.33;;
35434;SDS011;21556;55.782;37.528;2024-01-25T09:43:22;12.73;;;8.10;;
35434;SDS011;21556;55.782;37.528;2024-01-25T09:45:48;10.53;;;7.20;;
35434;SDS011;21556;55.782;37.528;2024-01-25T09:48:20;11.80;;;6.20;;
35434;SDS011;21556;55.782;37.528;2024-01-25T09:50:47;12.43;;;7.93;;
35434;SDS011;21556;55.782;37.528;2024-01-25T09:53:23;10.70;;;6.83;;
35434;SDS011;21556;55.782;37.528;2024-01-25T09:56:08;10.70;;;6.93;;
35434;SDS011;21556;55.782;37.528;2024-01-25T09:58:40;12.37;;;7.63;;
35434;SDS011;21556;55.782;37.528;2024-01-25T10:01:11;10.90;;;7.20;;
35434;SDS011;21556;55.782;37.528;2024-01-25T10:03:39;12.47;;;7.17;;
35434;SDS011;21556;55.782;37.528;2024-01-25T10:06:07;11.07;;;7.23;;
35434;SDS011;21556;55.782;37.528;2024-01-25T10:08:34;10.63;;;6.73;;
35434;SDS011;21556;55.782;37.528;2024-01-25T10:11:00;16.20;;;7.87;;
35434;SDS011;21556;55.782;37.528;2024-01-25T10:13:26;16.20;;;8.53;;
35434;SDS011;21556;55.782;37.528;2024-01-25T10:15:53;11.03;;;6.80;;
35434;SDS011;21556;55.782;37.528;2024-01-25T10:18:22;11.00;;;7.37;;
35434;SDS011;21556;55.782;37.528;2024-01-25T10:20:49;12.70;;;7.80;;
35434;SDS011;21556;55.782;37.528;2024-01-25T10:23:18;11.57;;;7.00;;
35434;SDS011;21556;55.782;37.528;2024-01-25T10:25:44;11.73;;;7.20;;
35434;SDS011;21556;55.782;37.528;2024-01-25T10:28:11;11.43;;;7.77;;
35434;SDS011;21556;55.782;37.528;2024-01-25T10:30:38;11.27;;;6.97;;
35434;SDS011;21556;55.782;37.528;2024-01-25T10:33:04;11.40;;;7.57;;
35434;SDS011;21556;55.782;37.528;2024-01-25T10:35:33;11.20;;;7.30;;
35434;SDS011;21556;55.782;37.528;2024-01-25T10:38:04;13.30;;;7.50;;
35434;SDS011;21556;55.782;37.528;2024-01-25T10:40:31;11.03;;;7.63;;
35434;SDS011;21556;55.782;37.528;2024-01-25T10:42:57;9.23;;;6.43;;
35434;SDS011;21556;55.782;37.528;2024-01-25T10:45:23;14.10;;;8.13;;
35434;SDS011;21556;55.782;37.528;2024-01-25T10:47:49;14.17;;;7.17;;
35434;SDS011;21556;55.782;37.528;2024-01-25T10:50:16;13.10;;;7.40;;
35434;SDS011;21556;55.782;37.528;2024-01-25T10:52:45;13.83;;;7.93;;
35434;SDS011;21556;55.782;37.528;2024-01-25T10:55:31;15.40;;;8.03;;
35434;SDS011;21556;55.782;37.528;2024-01-25T10:57:57;11.13;;;7.87;;
35434;SDS011;21556;55.782;37.528;2024-01-25T11:00:23;14.43;;;8.23;;
35434;SDS011;21556;55.782;37.528;2024-01-25T11:02:50;11.53;;;8.10;;
35434;SDS011;21556;55.782;37.528;2024-01-25T11:05:17;11.03;;;6.97;;
35434;SDS011;21556;55.782;37.528;2024-01-25T11:07:47;12.37;;;8.03;;
35434;SDS011;21556;55.782;37.528;2024-01-25T11:10:16;14.60;;;9.57;;
35434;SDS011;21556;55.782;37.528;2024-01-25T11:12:57;15.03;;;8.63;;
35434;SDS011;21556;55.782;37.528;2024-01-25T11:18:02;15.40;;;9.07;;
35434;SDS011;21556;55.782;37.528;2024-01-25T11:20:33;14.93;;;9.43;;
35434;SDS011;21556;55.782;37.528;2024-01-25T11:23:04;11.45;;;7.10;;
35434;SDS011;21556;55.782;37.528;2024-01-25T11:25:33;14.50;;;9.23;;
35434;SDS011;21556;55.782;37.528;2024-01-25T11:28:01;10.18;;;4.82;;
35434;SDS011;21556;55.782;37.528;2024-01-25T11:30:30;15.07;;;9.02;;
35434;SDS011;21556;55.782;37.528;2024-01-25T11:32:59;15.20;;;8.70;;
35434;SDS011;21556;55.782;37.528;2024-01-25T11:35:25;14.47;;;9.57;;
35434;SDS011;21556;55.782;37.528;2024-01-25T11:37:52;16.33;;;9.23;;
35434;SDS011;21556;55.782;37.528;2024-01-25T11:40:19;14.60;;;9.30;;
35434;SDS011;21556;55.782;37.528;2024-01-25T11:42:49;15.90;;;8.97;;
35434;SDS011;21556;55.782;37.528;2024-01-25T11:45:16;15.60;;;9.57;;
35434;SDS011;21556;55.782;37.528;2024-01-25T11:47:43;13.80;;;8.83;;
35434;SDS011;21556;55.782;37.528;2024-01-25T11:50:10;16.77;;;10.57;;
35434;SDS011;21556;55.782;37.528;2024-01-25T11:52:37;18.50;;;9.82;;
35434;SDS011;21556;55.782;37.528;2024-01-25T11:55:05;17.63;;;9.80;;
35434;SDS011;21556;55.782;37.528;2024-01-25T11:57:33;16.33;;;9.95;;
35434;SDS011;21556;55.782;37.528;2024-01-25T12:02:50;16.10;;;10.18;;
35434;SDS011;21556;55.782;37.528;2024-01-25T12:05:17;14.47;;;9.27;;
35434;SDS011;21556;55.782;37.528;2024-01-25T12:07:44;15.83;;;9.80;;
35434;SDS011;21556;55.782;37.528;2024-01-25T12:10:17;15.73;;;9.23;;
35434;SDS011;21556;55.782;37.528;2024-01-25T12:12:45;14.03;;;9.73;;
35434;SDS011;21556;55.782;37.528;2024-01-25T12:15:12;17.33;;;10.77;;
35434;SDS011;21556;55.782;37.528;2024-01-25T12:17:41;21.33;;;11.13;;
35434;SDS011;21556;55.782;37.528;2024-01-25T12:20:10;17.03;;;11.57;;
35434;SDS011;21556;55.782;37.528;2024-01-25T12:22:42;16.97;;;10.20;;
35434;SDS011;21556;55.782;37.528;2024-01-25T12:25:09;18.17;;;10.07;;
35434;SDS011;21556;55.782;37.528;2024-01-25T12:27:39;16.67;;;11.80;;
35434;SDS011;21556;55.782;37.528;2024-01-25T12:30:07;15.38;;;9.75;;
35434;SDS011;21556;55.782;37.528;2024-01-25T12:32:38;16.73;;;10.10;;
35434;SDS011;21556;55.782;37.528;2024-01-25T12:35:07;19.27;;;11.13;;
35434;SDS011;21556;55.782;37.528;2024-01-25T12:37:34;19.20;;;10.73;;
35434;SDS011;21556;55.782;37.528;2024-01-25T12:40:11;17.00;;;10.73;;
35434;SDS011;21556;55.782;37.528;2024-01-25T12:42:44;17.47;;;10.97;;
35434;SDS011;21556;55.782;37.528;2024-01-25T12:45:10;17.97;;;11.00;;
35434;SDS011;21556;55.782;37.528;2024-01-25T12:47:37;18.63;;;12.20;;
35434;SDS011;21556;55.782;37.528;2024-01-25T12:50:03;14.33;;;8.47;;
35434;SDS011;21556;55.782;37.528;2024-01-25T12:52:30;18.77;;;11.13;;
35434;SDS011;21556;55.782;37.528;2024-01-25T12:54:56;22.13;;;12.30;;
35434;SDS011;21556;55.782;37.528;2024-01-25T12:57:22;19.87;;;11.13;;
35434;SDS011;21556;55.782;37.528;2024-01-25T13:00:07;18.83;;;11.23;;
35434;SDS011;21556;55.782;37.528;2024-01-25T13:02:33;20.77;;;11.80;;
35434;SDS011;21556;55.782;37.528;2024-01-25T13:05:00;17.27;;;11.00;;
35434;SDS011;21556;55.782;37.528;2024-01-25T13:07:26;21.93;;;11.47;;
35434;SDS011;21556;55.782;37.528;2024-01-25T13:09:52;19.80;;;12.10;;
35434;SDS011;21556;55.782;37.528;2024-01-25T13:12:18;23.20;;;13.87;;
35434;SDS011;21556;55.782;37.528;2024-01-25T13:14:44;20.93;;;11.73;;
35434;SDS011;21556;55.782;37.528;2024-01-25T13:17:11;20.03;;;12.03;;
35434;SDS011;21556;55.782;37.528;2024-01-25T13:19:42;19.70;;;11.63;;
35434;SDS011;21556;55.782;37.528;2024-01-25T13:25:06;22.80;;;11.30;;
35434;SDS011;21556;55.782;37.528;2024-01-25T13:27:32;21.90;;;12.37;;
35434;SDS011;21556;55.782;37.528;2024-01-25T13:29:58;19.80;;;12.63;;
35434;SDS011;21556;55.782;37.528;2024-01-25T13:32:32;19.97;;;12.20;;
35434;SDS011;21556;55.782;37.528;2024-01-25T13:35:02;21.87;;;12.30;;
35434;SDS011;21556;55.782;37.528;2024-01-25T13:37:31;21.00;;;12.67;;
35434;SDS011;21556;55.782;37.528;2024-01-25T13:40:01;20.27;;;12.40;;
35434;SDS011;21556;55.782;37.528;2024-01-25T13:44:57;20.60;;;13.20;;
35434;SDS011;21556;55.782;37.528;2024-01-25T13:47:26;17.90;;;11.53;;
35434;SDS011;21556;55.782;37.528;2024-01-25T13:49:52;23.83;;;13.67;;
35434;SDS011;21556;55.782;37.528;2024-01-25T13:52:21;23.70;;;15.83;;
35434;SDS011;21556;55.782;37.528;2024-01-25T13:54:47;21.00;;;13.23;;
35434;SDS011;21556;55.782;37.528;2024-01-25T13:57:16;20.53;;;13.53;;
35434;SDS011;21556;55.782;37.528;2024-01-25T13:59:47;20.30;;;12.57;;
35434;SDS011;21556;55.782;37.528;2024-01-25T14:02:17;22.63;;;13.00;;
35434;SDS011;21556;55.782;37.528;2024-01-25T14:04:43;23.67;;;13.67;;
35434;SDS011;21556;55.782;37.528;2024-01-25T14:07:15;27.00;;;13.07;;
35434;SDS011;21556;55.782;37.528;2024-01-25T14:09:45;20.67;;;11.80;;
35434;SDS011;21556;55.782;37.528;2024-01-25T14:12:11;23.97;;;12.87;;
35434;SDS011;21556;55.782;37.528;2024-01-25T14:14:43;22.60;;;13.50;;
35434;SDS011;21556;55.782;37.528;2024-01-25T14:17:10;20.17;;;12.50;;
35434;SDS011;21556;55.782;37.528;2024-01-25T14:19:36;23.10;;;14.97;;
35434;SDS011;21556;55.782;37.528;2024-01-25T14:22:03;23.70;;;14.63;;
35434;SDS011;21556;55.782;37.528;2024-01-25T14:24:31;21.43;;;14.33;;
35434;SDS011;21556;55.782;37.528;2024-01-25T14:27:00;22.83;;;14.13;;
35434;SDS011;21556;55.782;37.528;2024-01-25T14:29:30;20.50;;;13.27;;
35434;SDS011;21556;55.782;37.528;2024-01-25T14:31:59;20.93;;;13.23;;
35434;SDS011;21556;55.782;37.528;2024-01-25T14:34:26;24.17;;;14.20;;
35434;SDS011;21556;55.782;37.528;2024-01-25T14:36:53;21.63;;;15.10;;
35434;SDS011;21556;55.782;37.528;2024-01-25T14:39:19;23.83;;;13.77;;
35434;SDS011;21556;55.782;37.528;2024-01-25T14:41:45;24.53;;;14.77;;
35434;SDS011;21556;55.782;37.528;2024-01-25T14:44:12;28.27;;;15.80;;
35434;SDS011;21556;55.782;37.528;2024-01-25T14:46:39;23.77;;;14.27;;
35434;SDS011;21556;55.782;37.528;2024-01-25T14:49:08;24.50;;;13.50;;
35434;SDS011;21556;55.782;37.528;2024-01-25T14:51:34;23.97;;;14.93;;
35434;SDS011;21556;55.782;37.528;2024-01-25T14:54:01;23.30;;;15.33;;